createdAt,value
2023-03-03T05:50:43.934Z,3.93
2023-03-03T05:53:31.794Z,4.01
2023-03-03T05:56:19.513Z,3.97
2023-03-03T05:59:14.052Z,4.10
2023-03-03T06:02:04.184Z,4.00
2023-03-03T06:04:52.036Z,4.18
2023-03-03T06:07:40.088Z,4.15
2023-03-03T06:10:28.301Z,4.01
2023-03-03T06:13:19.178Z,4.05
2023-03-03T06:16:08.691Z,4.18
2023-03-03T06:18:56.512Z,4.11
2023-03-03T06:21:44.391Z,4.06
2023-03-03T06:24:32.023Z,4.31
2023-03-03T06:27:19.950Z,4.28
2023-03-03T06:30:08.122Z,4.25
2023-03-03T06:33:06.273Z,4.24
2023-03-03T06:35:56.529Z,4.21
2023-03-03T06:38:44.942Z,4.16
2023-03-03T06:41:32.634Z,4.27
2023-03-03T06:44:20.574Z,4.26
2023-03-03T06:47:08.297Z,4.41
2023-03-03T06:49:56.184Z,4.12
2023-03-03T06:52:43.869Z,4.09
2023-03-03T06:55:31.673Z,4.23
2023-03-03T06:58:21.890Z,4.28
2023-03-03T07:01:17.176Z,4.22
2023-03-03T07:04:36.447Z,4.23
2023-03-03T07:07:26.185Z,4.18
2023-03-03T07:10:22.401Z,4.24
2023-03-03T07:13:30.246Z,4.04
2023-03-03T07:16:25.677Z,4.38
2023-03-03T07:19:33.930Z,4.36
2023-03-03T07:22:24.940Z,4.34
2023-03-03T07:25:38.673Z,4.25
2023-03-03T07:28:29.379Z,4.44
2023-03-03T07:31:31.933Z,4.71
2023-03-03T07:34:43.486Z,4.63
2023-03-03T07:37:42.842Z,4.72
2023-03-03T07:40:39.274Z,4.67
2023-03-03T07:43:32.897Z,4.51
2023-03-03T07:46:48.388Z,4.56
2023-03-03T07:49:38.017Z,4.50
2023-03-03T07:52:40.075Z,4.48
2023-03-03T07:55:35.827Z,4.56
2023-03-03T07:58:30.365Z,4.67
2023-03-03T08:01:40.805Z,4.73
2023-03-03T08:04:52.873Z,4.65
2023-03-03T08:07:41.189Z,4.59
2023-03-03T08:10:51.592Z,4.82
2023-03-03T08:13:42.288Z,4.97
2023-03-03T08:16:39.386Z,5.03
2023-03-03T08:19:29.934Z,4.92
2023-03-03T08:22:38.562Z,5.05
2023-03-03T08:25:28.811Z,5.10
2023-03-03T08:28:16.947Z,5.17
2023-03-03T08:31:16.757Z,5.08
2023-03-03T08:34:07.907Z,5.04
2023-03-03T08:36:58.494Z,5.24
2023-03-03T08:39:46.394Z,5.24
2023-03-03T08:42:34.125Z,5.41
2023-03-03T08:45:21.971Z,5.31
2023-03-03T08:48:09.731Z,5.00
2023-03-03T08:50:57.962Z,5.04
2023-03-03T08:53:45.583Z,5.21
2023-03-03T08:56:33.203Z,5.20
2023-03-03T08:59:21.048Z,5.41
2023-03-03T09:02:09.269Z,5.48
2023-03-03T09:04:57.122Z,5.68
2023-03-03T09:07:47.860Z,5.50
2023-03-03T09:10:35.988Z,5.37
2023-03-03T09:13:24.533Z,5.43
2023-03-03T09:16:16.184Z,5.52
2023-03-03T09:19:19.914Z,5.37
2023-03-03T09:22:25.312Z,5.62
2023-03-03T09:25:24.973Z,5.69
2023-03-03T09:28:33.264Z,5.69
2023-03-03T09:31:40.548Z,5.85
2023-03-03T09:34:48.691Z,5.96
2023-03-03T09:37:40.663Z,6.15
2023-03-03T09:40:55.784Z,5.95
2023-03-03T09:43:53.360Z,6.09
2023-03-03T09:47:19.997Z,5.99
2023-03-03T09:50:19.441Z,5.64
2023-03-03T09:53:28.075Z,5.68
2023-03-03T09:56:54.052Z,5.69
2023-03-03T09:59:47.844Z,5.62
2023-03-03T10:03:06.794Z,5.77
2023-03-03T10:06:05.653Z,5.76
2023-03-03T10:09:12.824Z,5.82
2023-03-03T10:12:28.760Z,5.87
2023-03-03T10:15:40.657Z,5.87
2023-03-03T10:18:51.007Z,5.69
2023-03-03T10:21:52.128Z,5.84
2023-03-03T10:24:53.272Z,5.96
2023-03-03T10:28:19.839Z,6.12
2023-03-03T10:31:18.081Z,6.09
2023-03-03T10:34:43.824Z,6.10
2023-03-03T10:37:54.238Z,6.07
2023-03-03T10:40:44.598Z,6.07
2023-03-03T10:43:59.820Z,6.27
2023-03-03T10:47:16.536Z,6.19
2023-03-03T10:50:32.787Z,6.01
2023-03-03T10:53:26.322Z,5.71
2023-03-03T10:56:53.954Z,5.99
2023-03-03T11:00:01.160Z,6.37
2023-03-03T11:03:18.518Z,6.47
2023-03-03T11:07:13.532Z,6.48
2023-03-03T11:10:09.596Z,6.58
2023-03-03T11:13:19.126Z,6.76
2023-03-03T11:16:29.376Z,6.49
2023-03-03T11:19:34.624Z,6.15
2023-03-03T11:22:48.983Z,6.17
2023-03-03T11:25:53.418Z,5.77
2023-03-03T11:28:59.796Z,6.17
2023-03-03T11:32:18.741Z,6.39
2023-03-03T11:35:09.549Z,6.49
2023-03-03T11:38:15.758Z,6.48
2023-03-03T11:41:15.811Z,6.47
2023-03-03T11:44:12.232Z,6.44
2023-03-03T11:47:09.535Z,5.94
2023-03-03T11:50:04.756Z,6.49
2023-03-03T11:53:04.194Z,6.63
2023-03-03T11:56:11.109Z,6.37
2023-03-03T11:59:04.524Z,6.33
2023-03-03T12:01:58.026Z,6.66
2023-03-03T12:04:53.615Z,6.66
2023-03-03T12:07:47.110Z,7.10
2023-03-03T12:10:48.976Z,7.22
2023-03-03T12:13:58.525Z,7.17
2023-03-03T12:16:59.332Z,7.17
2023-03-03T12:20:08.227Z,6.80
2023-03-03T12:23:12.437Z,6.78
2023-03-03T12:26:12.161Z,6.80
2023-03-03T12:29:10.084Z,6.62
2023-03-03T12:32:18.331Z,6.66
2023-03-03T12:35:21.582Z,6.51
2023-03-03T12:38:47.774Z,6.69
2023-03-03T12:41:44.055Z,6.38
2023-03-03T12:45:01.040Z,6.51
2023-03-03T12:48:00.236Z,6.47
2023-03-03T12:50:56.218Z,6.43
2023-03-03T12:53:53.558Z,6.44
2023-03-03T12:57:02.356Z,6.37
2023-03-03T13:00:08.319Z,6.44
2023-03-03T13:03:05.897Z,6.28
2023-03-03T13:06:31.439Z,6.51
2023-03-03T13:09:41.972Z,6.34
2023-03-03T13:13:09.225Z,6.58
2023-03-03T13:16:16.796Z,6.80
2023-03-03T13:19:21.327Z,6.77
2023-03-03T13:22:42.456Z,6.89
2023-03-03T13:25:50.867Z,6.86
2023-03-03T13:29:20.592Z,6.73
2023-03-03T13:32:31.345Z,7.02
2023-03-03T13:35:19.221Z,7.07
2023-03-03T13:38:11.901Z,7.05
2023-03-03T13:41:24.492Z,7.12
2023-03-03T13:44:15.524Z,7.06
2023-03-03T13:47:13.568Z,7.23
2023-03-03T13:50:23.579Z,7.28
2023-03-03T13:53:27.571Z,7.30
2023-03-03T13:56:54.712Z,6.61
2023-03-03T14:00:07.157Z,6.67
2023-03-03T14:03:18.582Z,6.85
2023-03-03T14:06:14.961Z,6.67
2023-03-03T14:09:16.886Z,6.81
2023-03-03T14:12:34.816Z,6.69
2023-03-03T14:15:28.197Z,6.78
2023-03-03T14:18:18.848Z,6.85
2023-03-03T14:21:19.669Z,6.93
2023-03-03T14:24:14.968Z,6.79
2023-03-03T14:27:23.662Z,6.62
2023-03-03T14:30:37.875Z,6.70
2023-03-03T14:33:37.489Z,6.77
2023-03-03T14:36:43.972Z,6.81
2023-03-03T14:39:35.639Z,6.87
2023-03-03T14:42:39.574Z,6.95
2023-03-03T14:45:41.729Z,6.95
2023-03-03T14:48:32.292Z,7.04
2023-03-03T14:51:34.421Z,7.07
2023-03-03T14:54:26.878Z,6.95
2023-03-03T14:57:37.877Z,6.82
2023-03-03T15:00:25.468Z,6.60
2023-03-03T15:03:27.660Z,6.55
2023-03-03T15:06:48.779Z,6.30
2023-03-03T15:09:50.613Z,6.43
2023-03-03T15:12:40.959Z,6.38
2023-03-03T15:15:30.185Z,6.49
2023-03-03T15:18:21.745Z,6.54
2023-03-03T15:21:16.371Z,6.51
2023-03-03T15:24:22.594Z,6.50
2023-03-03T15:27:20.070Z,6.50
2023-03-03T15:30:50.749Z,6.50
2023-03-03T15:33:56.863Z,6.50
2023-03-03T15:37:07.036Z,6.43
2023-03-03T15:40:09.712Z,6.41
2023-03-03T15:43:01.202Z,6.33
2023-03-03T15:46:16.290Z,6.32
2023-03-03T15:49:38.360Z,6.37
2023-03-03T15:52:53.420Z,6.35
2023-03-03T15:55:56.237Z,6.29
2023-03-03T15:58:52.724Z,6.31
2023-03-03T16:02:27.932Z,5.98
2023-03-03T16:05:24.324Z,6.26
2023-03-03T16:08:23.641Z,6.30
2023-03-03T16:11:21.748Z,6.13
2023-03-03T16:14:28.379Z,6.18
2023-03-03T16:17:32.867Z,5.99
2023-03-03T16:20:41.768Z,5.93
2023-03-03T16:23:50.280Z,5.89
2023-03-03T16:26:43.563Z,5.80
2023-03-03T16:29:47.701Z,5.77
2023-03-03T16:32:46.161Z,5.67
2023-03-03T16:36:02.696Z,5.63
2023-03-03T16:39:26.792Z,5.59
2023-03-03T16:42:32.847Z,5.63
2023-03-03T16:45:26.072Z,5.59
2023-03-03T16:48:49.490Z,5.47
2023-03-03T16:51:47.015Z,5.48
2023-03-03T16:55:27.894Z,5.47
2023-03-03T16:58:33.748Z,5.42
2023-03-03T17:01:30.301Z,5.18
2023-03-03T17:04:33.423Z,5.33
2023-03-03T17:07:55.052Z,5.26
2023-03-03T17:11:02.708Z,5.19
2023-03-03T17:14:09.866Z,5.22
2023-03-03T17:16:57.514Z,5.25
2023-03-03T17:20:06.973Z,5.31
2023-03-03T17:23:07.953Z,5.27
2023-03-03T17:26:25.986Z,5.26
2023-03-03T17:29:45.068Z,5.23
2023-03-03T17:32:53.793Z,5.14
2023-03-03T17:35:56.677Z,5.18
2023-03-03T17:39:12.860Z,5.17
2023-03-03T17:42:40.080Z,5.06
2023-03-03T17:45:30.788Z,5.12
2023-03-03T17:48:51.282Z,5.14
2023-03-03T17:51:41.664Z,5.13
2023-03-03T17:54:29.311Z,5.16
2023-03-03T17:57:54.687Z,5.11
2023-03-03T18:00:54.372Z,5.01
2023-03-03T18:03:57.141Z,5.05
2023-03-03T18:07:16.572Z,5.09
2023-03-03T18:10:19.470Z,5.09
2023-03-03T18:13:29.399Z,5.03
2023-03-03T18:16:53.968Z,5.09
2023-03-03T18:19:56.790Z,4.95
2023-03-03T18:22:52.821Z,5.04
2023-03-03T18:26:34.331Z,5.00
2023-03-03T18:29:28.162Z,4.79
2023-03-03T18:32:24.189Z,4.91
2023-03-03T18:35:30.122Z,4.74
2023-03-03T18:38:26.531Z,4.78
2023-03-03T18:41:24.215Z,4.50
2023-03-03T18:44:30.968Z,4.50
2023-03-03T18:47:44.087Z,4.66
2023-03-03T18:50:49.698Z,4.47
2023-03-03T18:53:38.334Z,4.57
2023-03-03T18:56:46.814Z,4.70
2023-03-03T18:59:37.618Z,4.71
2023-03-03T19:02:34.873Z,4.63
2023-03-03T19:05:48.404Z,4.67
2023-03-03T19:08:58.159Z,4.57
2023-03-03T19:11:56.195Z,4.70
2023-03-03T19:14:48.506Z,4.49
2023-03-03T19:17:39.283Z,4.53
2023-03-03T19:20:42.829Z,4.67
2023-03-03T19:23:54.732Z,4.70
2023-03-03T19:27:00.894Z,4.73
2023-03-03T19:30:14.579Z,4.75
2023-03-03T19:33:07.874Z,4.74
2023-03-03T19:36:10.935Z,4.54
2023-03-03T19:39:20.200Z,4.66
2023-03-03T19:42:40.230Z,4.66
2023-03-03T19:45:53.440Z,4.72
2023-03-03T19:49:08.578Z,4.64
2023-03-03T19:52:05.632Z,4.63
2023-03-03T19:55:25.056Z,4.67
2023-03-03T19:58:25.808Z,4.61
2023-03-03T20:01:41.053Z,4.74
2023-03-03T20:04:52.621Z,4.66
2023-03-03T20:08:24.844Z,4.74
2023-03-03T20:11:46.441Z,4.75
2023-03-03T20:14:46.296Z,4.75
2023-03-03T20:17:43.453Z,4.73
2023-03-03T20:20:37.151Z,4.72
2023-03-03T20:23:53.964Z,4.73
2023-03-03T20:27:04.140Z,4.61
2023-03-03T20:30:13.187Z,4.69
2023-03-03T20:33:19.278Z,4.67
2023-03-03T20:36:07.126Z,4.73
2023-03-03T20:39:06.181Z,4.65
2023-03-03T20:47:35.575Z,4.68
2023-03-03T20:50:51.273Z,4.68
2023-03-03T20:54:02.728Z,4.63
2023-03-03T20:57:08.283Z,4.67
2023-03-03T21:00:27.981Z,4.66
2023-03-03T21:03:35.977Z,4.63
2023-03-03T21:06:39.067Z,4.62
2023-03-03T21:09:39.331Z,4.60
2023-03-03T21:12:31.512Z,4.55
2023-03-03T21:15:26.768Z,4.67
2023-03-03T21:18:24.277Z,4.49
2023-03-03T21:21:12.119Z,4.51
2023-03-03T21:23:59.847Z,4.65
2023-03-03T21:26:56.875Z,4.61
2023-03-03T21:29:52.014Z,4.61
2023-03-03T21:32:49.333Z,4.74
2023-03-03T21:36:00.049Z,4.75
2023-03-03T21:38:48.365Z,4.61
2023-03-03T21:41:55.574Z,4.54
2023-03-03T21:44:46.987Z,4.56
2023-03-03T21:47:34.715Z,4.50
2023-03-03T21:50:22.841Z,4.45
2023-03-03T21:53:10.570Z,4.49
2023-03-03T21:55:58.237Z,4.52
2023-03-03T21:58:46.988Z,4.44
2023-03-03T22:01:37.747Z,4.52
2023-03-03T22:04:26.027Z,4.46
2023-03-03T22:07:13.947Z,4.45
2023-03-03T22:10:01.583Z,4.37
2023-03-03T22:12:49.406Z,4.35
2023-03-03T22:15:37.170Z,4.40
2023-03-03T22:18:24.924Z,4.42
2023-03-03T22:21:12.640Z,4.48
2023-03-03T22:24:00.370Z,4.50
2023-03-03T22:26:48.022Z,4.56
2023-03-03T22:29:35.723Z,4.49
2023-03-03T22:32:23.494Z,4.47
2023-03-03T22:35:11.407Z,4.23
2023-03-03T22:38:01.651Z,4.46
2023-03-03T22:40:49.382Z,4.42
2023-03-03T22:43:37.442Z,4.43
2023-03-03T22:46:25.299Z,4.40
2023-03-03T22:49:13.009Z,4.37
2023-03-03T22:52:02.819Z,4.37
2023-03-03T22:54:53.001Z,4.39
2023-03-03T22:57:40.769Z,4.29
2023-03-03T23:00:28.741Z,4.38
2023-03-03T23:03:16.610Z,4.37
2023-03-03T23:06:04.666Z,4.39
2023-03-03T23:08:52.426Z,4.35
2023-03-03T23:11:40.125Z,4.43
2023-03-03T23:14:28.193Z,4.40
2023-03-03T23:17:18.920Z,4.39
2023-03-03T23:20:07.407Z,4.15
2023-03-03T23:22:55.051Z,4.37
2023-03-03T23:25:42.719Z,4.21
2023-03-03T23:28:30.578Z,4.27
2023-03-03T23:31:18.435Z,4.40
2023-03-03T23:34:06.509Z,4.52
2023-03-03T23:36:54.191Z,4.53
2023-03-03T23:39:41.932Z,4.49
2023-03-03T23:42:30.898Z,4.35
2023-03-03T23:45:18.838Z,4.45
2023-03-03T23:48:07.111Z,4.39
2023-03-03T23:50:54.863Z,4.45
2023-03-03T23:53:42.464Z,4.43
2023-03-03T23:56:30.279Z,4.28
2023-03-03T23:59:18.168Z,4.40
